Stuart, OK (74570)

12:07 AM CDT on August 27, 2016 (GMT -0500)
Horntown OK | | Change Station

Elev 827 ft 35.08 °N, 96.26 °W | Updated 5 minutes ago

Mostly Cloudy
Mostly Cloudy
70.9 °F
Feels Like 70.9 °F
N
2.7
Wind Variable Wind from ESE

Today
High -- | Low -- °F
--% Chance of Precip.
Yesterday
High -- | Low -- °F
Precip. -- in
Pressure 30.00 in
Visibility 10.0 miles
Clouds Scattered Clouds 7000 ft
Mostly Cloudy 11000 ft
Dew Point 71 °F
Humidity 99%
Rainfall 0.00 in
Snow Depth Not available.
6:54 AM 7:57 PM
Waning Crescent, 28% visible
METAR KMLC 270453Z AUTO 00000KT 10SM SCT070 BKN110 23/21 A3002 RMK AO2 SLP157 T02280206
Pressure 30.00 in
Visibility 10.0 miles
Clouds Scattered Clouds 7000 ft
Mostly Cloudy 11000 ft
Dew Point 71 °F
Humidity 99%
Rainfall 0.00 in
Snow Depth Not available.
6:54 AM 7:57 PM
Waning Crescent, 28% visible
METAR KMLC 270453Z AUTO 00000KT 10SM SCT070 BKN110 23/21 A3002 RMK AO2 SLP157 T02280206

10-Day Weather Forecast

Almanac

Astronomy

Aug. 27, 2016 Rise Set
Actual Time
Civil Twilight
Nautical Twilight
Astronomical Twilight
Moon
Length of Visible Light
Length of Day
Tomorrow will be .
, % of the Moon is Illuminated

Today's Extremes

State Highs State Lows

Community

WunderPhotos

Upload Photos

1,935,301 photos uploaded!

WunderBlog® & News

Nearby

Air Quality

  Air Quality AQ Index Pollutant
Not available.

Snow Depth

Station Depth Elevation

Earthquake Activity

City Distance Mag. Time & Date
Minimum magnitude displayed is 2.5.

Coastal Water Temperatures

Place Temperature

Stations

Nearby Weather Stations

Station Location Temp. Windchill Dew Point Humidity Wind Precip. Elev Updated Type
                   

Watches & Warnings

There are currently no watches in effect.